sensor_id;sensor_type;location;lat;lon;timestamp;pressure;altitude;pressure_sealevel;temperature;humidity
24154;BME280;12312;53.362;-1.518;2023-03-14T00:01:56;57923.84;;;-139.99;100.00
24154;BME280;12312;53.362;-1.518;2023-03-14T00:05:20;57923.84;;;-139.99;100.00
24154;BME280;12312;53.362;-1.518;2023-03-14T00:08:44;57923.84;;;-139.99;100.00
24154;BME280;12312;53.362;-1.518;2023-03-14T00:12:10;57923.84;;;-139.99;100.00
24154;BME280;12312;53.362;-1.518;2023-03-14T00:15:37;57923.84;;;-139.99;100.00
24154;BME280;12312;53.362;-1.518;2023-03-14T00:19:01;57923.84;;;-139.99;100.00
24154;BME280;12312;53.362;-1.518;2023-03-14T00:22:26;57923.84;;;-139.99;100.00
24154;BME280;12312;53.362;-1.518;2023-03-14T00:25:50;57923.84;;;-139.99;100.00
24154;BME280;12312;53.362;-1.518;2023-03-14T00:29:14;57923.84;;;-139.99;100.00
24154;BME280;12312;53.362;-1.518;2023-03-14T00:32:38;57923.84;;;-139.99;100.00
24154;BME280;12312;53.362;-1.518;2023-03-14T00:36:03;57923.84;;;-139.99;100.00
24154;BME280;12312;53.362;-1.518;2023-03-14T00:39:29;57923.84;;;-139.99;100.00
24154;BME280;12312;53.362;-1.518;2023-03-14T00:42:53;57923.84;;;-139.99;100.00
24154;BME280;12312;53.362;-1.518;2023-03-14T00:46:17;57923.84;;;-139.99;100.00
24154;BME280;12312;53.362;-1.518;2023-03-14T00:49:42;57923.84;;;-139.99;100.00
24154;BME280;12312;53.362;-1.518;2023-03-14T00:53:07;57923.84;;;-139.99;100.00
24154;BME280;12312;53.362;-1.518;2023-03-14T00:56:34;57923.84;;;-139.99;100.00
24154;BME280;12312;53.362;-1.518;2023-03-14T01:00:17;57923.84;;;-139.99;100.00
24154;BME280;12312;53.362;-1.518;2023-03-14T01:03:41;57923.84;;;-139.99;100.00
24154;BME280;12312;53.362;-1.518;2023-03-14T01:07:10;57923.84;;;-139.99;100.00
24154;BME280;12312;53.362;-1.518;2023-03-14T01:10:37;57923.84;;;-139.99;100.00
24154;BME280;12312;53.362;-1.518;2023-03-14T01:14:01;57923.84;;;-139.99;100.00
24154;BME280;12312;53.362;-1.518;2023-03-14T01:17:26;57923.84;;;-139.99;100.00
24154;BME280;12312;53.362;-1.518;2023-03-14T01:20:50;57923.84;;;-139.99;100.00
24154;BME280;12312;53.362;-1.518;2023-03-14T01:24:14;57923.84;;;-139.99;100.00
24154;BME280;12312;53.362;-1.518;2023-03-14T01:27:39;57923.84;;;-139.99;100.00
24154;BME280;12312;53.362;-1.518;2023-03-14T01:31:08;57923.84;;;-139.99;100.00
24154;BME280;12312;53.362;-1.518;2023-03-14T01:34:32;57923.84;;;-139.99;100.00
24154;BME280;12312;53.362;-1.518;2023-03-14T01:38:15;57923.84;;;-139.99;100.00
24154;BME280;12312;53.362;-1.518;2023-03-14T01:41:59;57923.84;;;-139.99;100.00
24154;BME280;12312;53.362;-1.518;2023-03-14T01:49:43;57923.84;;;-139.99;100.00
24154;BME280;12312;53.362;-1.518;2023-03-14T01:53:30;57923.84;;;-139.99;100.00
24154;BME280;12312;53.362;-1.518;2023-03-14T01:57:17;57923.84;;;-139.99;100.00
24154;BME280;12312;53.362;-1.518;2023-03-14T02:01:10;57923.84;;;-139.99;100.00
24154;BME280;12312;53.362;-1.518;2023-03-14T02:04:54;57923.84;;;-139.99;100.00
24154;BME280;12312;53.362;-1.518;2023-03-14T02:08:45;57923.84;;;-139.99;100.00
24154;BME280;12312;53.362;-1.518;2023-03-14T02:12:30;57923.84;;;-139.99;100.00
24154;BME280;12312;53.362;-1.518;2023-03-14T02:16:14;57923.84;;;-139.99;100.00
24154;BME280;12312;53.362;-1.518;2023-03-14T02:23:53;57923.84;;;-139.99;100.00
24154;BME280;12312;53.362;-1.518;2023-03-14T02:27:43;57923.84;;;-139.99;100.00
24154;BME280;12312;53.362;-1.518;2023-03-14T02:31:27;57923.84;;;-139.99;100.00
24154;BME280;12312;53.362;-1.518;2023-03-14T02:35:11;57923.84;;;-139.99;100.00
24154;BME280;12312;53.362;-1.518;2023-03-14T02:39:23;57923.84;;;-139.99;100.00
24154;BME280;12312;53.362;-1.518;2023-03-14T02:43:07;57923.84;;;-139.99;100.00
24154;BME280;12312;53.362;-1.518;2023-03-14T02:46:50;57923.84;;;-139.99;100.00
24154;BME280;12312;53.362;-1.518;2023-03-14T02:50:33;57923.84;;;-139.99;100.00
24154;BME280;12312;53.362;-1.518;2023-03-14T02:54:19;57923.84;;;-139.99;100.00
24154;BME280;12312;53.362;-1.518;2023-03-14T02:58:02;57923.84;;;-139.99;100.00
24154;BME280;12312;53.362;-1.518;2023-03-14T03:01:44;57923.84;;;-139.99;100.00
24154;BME280;12312;53.362;-1.518;2023-03-14T03:05:27;57923.84;;;-139.99;100.00
24154;BME280;12312;53.362;-1.518;2023-03-14T03:09:09;57923.84;;;-139.99;100.00
24154;BME280;12312;53.362;-1.518;2023-03-14T03:12:52;57923.84;;;-139.99;100.00
24154;BME280;12312;53.362;-1.518;2023-03-14T03:16:34;57923.84;;;-139.99;100.00
24154;BME280;12312;53.362;-1.518;2023-03-14T03:20:16;57923.84;;;-139.99;100.00
24154;BME280;12312;53.362;-1.518;2023-03-14T03:23:59;57923.84;;;-139.99;100.00
24154;BME280;12312;53.362;-1.518;2023-03-14T03:27:42;57923.84;;;-139.99;100.00
24154;BME280;12312;53.362;-1.518;2023-03-14T03:31:24;57923.84;;;-139.99;100.00
24154;BME280;12312;53.362;-1.518;2023-03-14T03:35:06;57923.84;;;-139.99;100.00
24154;BME280;12312;53.362;-1.518;2023-03-14T03:38:49;57923.84;;;-139.99;100.00
24154;BME280;12312;53.362;-1.518;2023-03-14T03:42:33;57923.84;;;-139.99;100.00
24154;BME280;12312;53.362;-1.518;2023-03-14T03:46:16;57923.84;;;-139.99;100.00
24154;BME280;12312;53.362;-1.518;2023-03-14T03:49:58;57923.84;;;-139.99;100.00
24154;BME280;12312;53.362;-1.518;2023-03-14T03:53:41;57923.84;;;-139.99;100.00
24154;BME280;12312;53.362;-1.518;2023-03-14T03:57:24;57923.84;;;-139.99;100.00
24154;BME280;12312;53.362;-1.518;2023-03-14T04:01:08;57923.84;;;-139.99;100.00
24154;BME280;12312;53.362;-1.518;2023-03-14T04:04:51;57923.84;;;-139.99;100.00
24154;BME280;12312;53.362;-1.518;2023-03-14T04:07:35;97000.28;;;2.32;100.00
24154;BME280;12312;53.362;-1.518;2023-03-14T04:10:19;97017.91;;;2.30;100.00
24154;BME280;12312;53.362;-1.518;2023-03-14T04:13:03;97019.91;;;2.15;100.00
24154;BME280;12312;53.362;-1.518;2023-03-14T04:15:47;97036.03;;;2.22;100.00
24154;BME280;12312;53.362;-1.518;2023-03-14T04:18:31;97062.84;;;2.14;100.00
24154;BME280;12312;53.362;-1.518;2023-03-14T04:21:15;97054.00;;;2.15;100.00
24154;BME280;12312;53.362;-1.518;2023-03-14T04:24:00;97060.56;;;2.10;100.00
24154;BME280;12312;53.362;-1.518;2023-03-14T04:26:43;97071.75;;;2.12;100.00
24154;BME280;12312;53.362;-1.518;2023-03-14T04:29:27;97086.44;;;2.14;100.00
24154;BME280;12312;53.362;-1.518;2023-03-14T04:32:11;97103.84;;;2.15;100.00
24154;BME280;12312;53.362;-1.518;2023-03-14T04:34:55;97100.88;;;2.20;100.00
24154;BME280;12312;53.362;-1.518;2023-03-14T04:37:39;97117.69;;;2.17;100.00
24154;BME280;12312;53.362;-1.518;2023-03-14T04:40:25;97119.25;;;2.20;100.00
24154;BME280;12312;53.362;-1.518;2023-03-14T04:43:10;97141.41;;;2.16;100.00
24154;BME280;12312;53.362;-1.518;2023-03-14T04:45:56;97149.66;;;2.22;100.00
24154;BME280;12312;53.362;-1.518;2023-03-14T04:48:40;97154.81;;;2.24;100.00
24154;BME280;12312;53.362;-1.518;2023-03-14T04:51:24;97169.44;;;2.39;100.00
24154;BME280;12312;53.362;-1.518;2023-03-14T04:54:11;97178.75;;;2.19;100.00
24154;BME280;12312;53.362;-1.518;2023-03-14T04:56:55;97183.63;;;2.13;100.00
24154;BME280;12312;53.362;-1.518;2023-03-14T04:59:39;97195.56;;;2.04;100.00
24154;BME280;12312;53.362;-1.518;2023-03-14T05:02:23;97202.72;;;2.02;100.00
24154;BME280;12312;53.362;-1.518;2023-03-14T05:05:07;97202.09;;;1.99;100.00
24154;BME280;12312;53.362;-1.518;2023-03-14T05:07:51;97208.47;;;2.07;100.00
24154;BME280;12312;53.362;-1.518;2023-03-14T05:10:35;97209.66;;;2.03;100.00
24154;BME280;12312;53.362;-1.518;2023-03-14T05:13:20;97217.81;;;2.11;100.00
24154;BME280;12312;53.362;-1.518;2023-03-14T05:16:06;97229.34;;;2.09;100.00
24154;BME280;12312;53.362;-1.518;2023-03-14T05:18:51;97231.34;;;2.05;100.00
24154;BME280;12312;53.362;-1.518;2023-03-14T05:21:35;97236.09;;;2.13;100.00
24154;BME280;12312;53.362;-1.518;2023-03-14T05:24:19;97247.00;;;2.07;100.00
24154;BME280;12312;53.362;-1.518;2023-03-14T05:27:04;97249.91;;;2.15;100.00
24154;BME280;12312;53.362;-1.518;2023-03-14T05:29:48;97251.59;;;2.16;100.00
24154;BME280;12312;53.362;-1.518;2023-03-14T05:32:32;97262.22;;;2.14;100.00
24154;BME280;12312;53.362;-1.518;2023-03-14T05:35:16;97279.50;;;2.17;100.00
24154;BME280;12312;53.362;-1.518;2023-03-14T05:38:00;97283.56;;;2.21;100.00
24154;BME280;12312;53.362;-1.518;2023-03-14T05:40:44;97289.34;;;2.26;100.00
24154;BME280;12312;53.362;-1.518;2023-03-14T05:43:29;97296.69;;;2.33;100.00
24154;BME280;12312;53.362;-1.518;2023-03-14T05:46:13;97315.81;;;2.23;100.00
24154;BME280;12312;53.362;-1.518;2023-03-14T05:48:58;97319.50;;;2.20;100.00
24154;BME280;12312;53.362;-1.518;2023-03-14T05:51:43;97322.81;;;2.35;100.00
24154;BME280;12312;53.362;-1.518;2023-03-14T05:54:27;97337.22;;;2.17;100.00
24154;BME280;12312;53.362;-1.518;2023-03-14T05:57:11;97355.59;;;2.17;100.00
24154;BME280;12312;53.362;-1.518;2023-03-14T05:59:55;97365.75;;;2.21;100.00
24154;BME280;12312;53.362;-1.518;2023-03-14T06:02:39;97366.19;;;2.03;100.00
24154;BME280;12312;53.362;-1.518;2023-03-14T06:05:23;97379.19;;;2.04;100.00
24154;BME280;12312;53.362;-1.518;2023-03-14T06:08:07;97392.41;;;2.03;100.00
24154;BME280;12312;53.362;-1.518;2023-03-14T06:10:52;97391.78;;;2.12;100.00
24154;BME280;12312;53.362;-1.518;2023-03-14T06:13:36;97383.56;;;2.04;100.00
24154;BME280;12312;53.362;-1.518;2023-03-14T06:16:20;97388.84;;;2.16;100.00
24154;BME280;12312;53.362;-1.518;2023-03-14T06:19:04;97400.72;;;2.09;100.00
24154;BME280;12312;53.362;-1.518;2023-03-14T06:21:48;97405.19;;;2.07;100.00
24154;BME280;12312;53.362;-1.518;2023-03-14T06:24:32;97410.34;;;2.09;100.00
24154;BME280;12312;53.362;-1.518;2023-03-14T06:27:16;97418.63;;;2.03;100.00
24154;BME280;12312;53.362;-1.518;2023-03-14T06:30:00;97429.13;;;2.03;100.00
24154;BME280;12312;53.362;-1.518;2023-03-14T06:32:44;97446.16;;;2.10;100.00
24154;BME280;12312;53.362;-1.518;2023-03-14T06:35:28;97452.72;;;2.03;100.00
24154;BME280;12312;53.362;-1.518;2023-03-14T06:38:12;97461.56;;;2.02;100.00
24154;BME280;12312;53.362;-1.518;2023-03-14T06:40:56;97466.06;;;2.00;100.00
24154;BME280;12312;53.362;-1.518;2023-03-14T06:43:40;97468.53;;;1.88;100.00
24154;BME280;12312;53.362;-1.518;2023-03-14T06:46:24;97481.13;;;1.83;100.00
24154;BME280;12312;53.362;-1.518;2023-03-14T06:49:08;97472.97;;;1.88;100.00
24154;BME280;12312;53.362;-1.518;2023-03-14T06:51:52;97500.00;;;1.88;100.00
24154;BME280;12312;53.362;-1.518;2023-03-14T06:54:36;97502.09;;;1.83;100.00
24154;BME280;12312;53.362;-1.518;2023-03-14T06:57:20;97515.94;;;1.85;100.00
24154;BME280;12312;53.362;-1.518;2023-03-14T07:00:04;97530.19;;;1.81;100.00
24154;BME280;12312;53.362;-1.518;2023-03-14T07:02:49;97533.47;;;1.85;100.00
24154;BME280;12312;53.362;-1.518;2023-03-14T07:05:33;97542.56;;;1.79;100.00
24154;BME280;12312;53.362;-1.518;2023-03-14T07:08:17;97557.88;;;1.85;100.00
24154;BME280;12312;53.362;-1.518;2023-03-14T07:11:02;97558.19;;;1.81;100.00
24154;BME280;12312;53.362;-1.518;2023-03-14T07:13:45;97568.38;;;1.85;100.00
24154;BME280;12312;53.362;-1.518;2023-03-14T07:16:29;97582.63;;;1.81;100.00
24154;BME280;12312;53.362;-1.518;2023-03-14T07:19:16;97580.56;;;1.87;100.00
24154;BME280;12312;53.362;-1.518;2023-03-14T07:22:00;97597.38;;;1.97;100.00
24154;BME280;12312;53.362;-1.518;2023-03-14T07:24:44;97595.94;;;2.05;100.00
24154;BME280;12312;53.362;-1.518;2023-03-14T07:27:28;97603.56;;;2.10;100.00
24154;BME280;12312;53.362;-1.518;2023-03-14T07:30:13;97608.78;;;2.10;100.00
24154;BME280;12312;53.362;-1.518;2023-03-14T07:32:57;97628.03;;;2.23;100.00
24154;BME280;12312;53.362;-1.518;2023-03-14T07:35:41;97631.06;;;2.17;100.00
24154;BME280;12312;53.362;-1.518;2023-03-14T07:38:25;97623.53;;;2.25;100.00
24154;BME280;12312;53.362;-1.518;2023-03-14T07:41:10;97631.72;;;2.20;100.00
24154;BME280;12312;53.362;-1.518;2023-03-14T07:43:55;97637.38;;;2.27;100.00
24154;BME280;12312;53.362;-1.518;2023-03-14T07:46:39;97652.22;;;2.28;100.00
24154;BME280;12312;53.362;-1.518;2023-03-14T07:49:23;97652.22;;;2.28;100.00
24154;BME280;12312;53.362;-1.518;2023-03-14T07:52:07;97655.47;;;2.31;100.00
24154;BME280;12312;53.362;-1.518;2023-03-14T07:54:51;97666.13;;;2.42;100.00
24154;BME280;12312;53.362;-1.518;2023-03-14T07:57:35;97685.84;;;2.35;100.00
24154;BME280;12312;53.362;-1.518;2023-03-14T08:00:19;97691.56;;;2.28;100.00
24154;BME280;12312;53.362;-1.518;2023-03-14T08:03:03;97709.88;;;2.42;100.00
24154;BME280;12312;53.362;-1.518;2023-03-14T08:05:50;97706.13;;;2.46;100.00
24154;BME280;12312;53.362;-1.518;2023-03-14T08:08:35;97705.25;;;2.59;100.00
24154;BME280;12312;53.362;-1.518;2023-03-14T08:11:18;97718.22;;;2.48;100.00
24154;BME280;12312;53.362;-1.518;2023-03-14T08:14:02;97735.25;;;2.55;100.00
24154;BME280;12312;53.362;-1.518;2023-03-14T08:16:46;97746.50;;;2.57;100.00
24154;BME280;12312;53.362;-1.518;2023-03-14T08:19:31;97753.06;;;2.64;100.00
24154;BME280;12312;53.362;-1.518;2023-03-14T08:22:16;97755.00;;;2.75;100.00
24154;BME280;12312;53.362;-1.518;2023-03-14T08:25:00;97755.91;;;2.74;100.00
24154;BME280;12312;53.362;-1.518;2023-03-14T08:27:44;97766.41;;;2.74;100.00
24154;BME280;12312;53.362;-1.518;2023-03-14T08:30:30;97766.78;;;2.82;100.00
24154;BME280;12312;53.362;-1.518;2023-03-14T08:33:13;97786.44;;;2.89;100.00
24154;BME280;12312;53.362;-1.518;2023-03-14T08:36:01;97790.38;;;2.96;100.00
24154;BME280;12312;53.362;-1.518;2023-03-14T08:39:02;97793.53;;;3.01;100.00
24154;BME280;12312;53.362;-1.518;2023-03-14T08:41:49;97787.91;;;3.19;100.00
24154;BME280;12312;53.362;-1.518;2023-03-14T08:44:34;97807.41;;;3.03;100.00
24154;BME280;12312;53.362;-1.518;2023-03-14T08:47:19;97803.72;;;3.32;100.00
24154;BME280;12312;53.362;-1.518;2023-03-14T08:50:05;97822.53;;;3.26;100.00
24154;BME280;12312;53.362;-1.518;2023-03-14T08:52:49;97831.81;;;3.44;100.00
24154;BME280;12312;53.362;-1.518;2023-03-14T08:55:34;97831.81;;;3.44;100.00
24154;BME280;12312;53.362;-1.518;2023-03-14T08:58:19;97839.81;;;3.42;100.00
24154;BME280;12312;53.362;-1.518;2023-03-14T09:01:08;97841.94;;;3.50;100.00
24154;BME280;12312;53.362;-1.518;2023-03-14T09:03:53;97850.72;;;3.63;100.00
24154;BME280;12312;53.362;-1.518;2023-03-14T09:06:38;74744.44;;;3.63;100.00
24154;BME280;12312;53.362;-1.518;2023-03-14T09:09:23;97850.72;;;3.63;90.04
24154;BME280;12312;53.362;-1.518;2023-03-14T09:12:07;97861.81;;;3.93;100.00
24154;BME280;12312;53.362;-1.518;2023-03-14T09:14:51;97861.81;;;3.93;100.00
24154;BME280;12312;53.362;-1.518;2023-03-14T09:17:35;97881.53;;;4.25;100.00
24154;BME280;12312;53.362;-1.518;2023-03-14T09:20:18;97874.97;;;4.43;100.00
24154;BME280;12312;53.362;-1.518;2023-03-14T09:23:02;97870.84;;;4.39;100.00
24154;BME280;12312;53.362;-1.518;2023-03-14T09:25:46;97886.97;;;3.97;100.00
24154;BME280;12312;53.362;-1.518;2023-03-14T09:28:30;97898.66;;;4.18;100.00
24154;BME280;12312;53.362;-1.518;2023-03-14T09:31:15;97903.59;;;4.10;100.00
24154;BME280;12312;53.362;-1.518;2023-03-14T09:33:59;97911.66;;;4.46;100.00
24154;BME280;12312;53.362;-1.518;2023-03-14T09:36:43;97926.81;;;4.43;100.00
24154;BME280;12312;53.362;-1.518;2023-03-14T09:39:28;107793.22;;;4.77;100.00
24154;BME280;12312;53.362;-1.518;2023-03-14T09:42:15;97919.09;;;4.77;0.00
24154;BME280;12312;53.362;-1.518;2023-03-14T09:45:04;97919.38;;;4.98;100.00
24154;BME280;12312;53.362;-1.518;2023-03-14T09:47:53;97919.38;;;4.98;100.00
24154;BME280;12312;53.362;-1.518;2023-03-14T09:50:42;74852.75;;;4.47;100.00
24154;BME280;12312;53.362;-1.518;2023-03-14T09:53:32;57923.84;;;-139.99;100.00
24154;BME280;12312;53.362;-1.518;2023-03-14T09:56:21;57923.84;;;-139.99;100.00
24154;BME280;12312;53.362;-1.518;2023-03-14T09:59:11;57923.84;;;-139.99;100.00
24154;BME280;12312;53.362;-1.518;2023-03-14T10:02:00;57923.84;;;-139.99;100.00
24154;BME280;12312;53.362;-1.518;2023-03-14T10:04:47;57923.84;;;-139.99;100.00
24154;BME280;12312;53.362;-1.518;2023-03-14T10:07:31;57923.84;;;-139.99;100.00
24154;BME280;12312;53.362;-1.518;2023-03-14T10:10:21;57923.84;;;-139.99;100.00
24154;BME280;12312;53.362;-1.518;2023-03-14T10:13:23;57923.84;;;-139.99;100.00
24154;BME280;12312;53.362;-1.518;2023-03-14T10:16:09;57923.84;;;-139.99;100.00
24154;BME280;12312;53.362;-1.518;2023-03-14T10:19:01;57923.84;;;-139.99;100.00
24154;BME280;12312;53.362;-1.518;2023-03-14T10:21:52;57923.84;;;-139.99;100.00
24154;BME280;12312;53.362;-1.518;2023-03-14T10:24:36;57923.84;;;-139.99;100.00
24154;BME280;12312;53.362;-1.518;2023-03-14T10:27:27;57923.84;;;-139.99;100.00
24154;BME280;12312;53.362;-1.518;2023-03-14T10:30:47;57923.84;;;-139.99;100.00
24154;BME280;12312;53.362;-1.518;2023-03-14T10:33:33;57923.84;;;-139.99;100.00
24154;BME280;12312;53.362;-1.518;2023-03-14T10:36:22;57923.84;;;-139.99;100.00
24154;BME280;12312;53.362;-1.518;2023-03-14T10:39:30;57923.84;;;-139.99;100.00
24154;BME280;12312;53.362;-1.518;2023-03-14T10:45:06;57923.84;;;-139.99;100.00
24154;BME280;12312;53.362;-1.518;2023-03-14T10:51:02;57923.84;;;-139.99;100.00
24154;BME280;12312;53.362;-1.518;2023-03-14T10:56:59;57923.84;;;-139.99;100.00
24154;BME280;12312;53.362;-1.518;2023-03-14T10:59:44;57923.84;;;-139.99;100.00
24154;BME280;12312;53.362;-1.518;2023-03-14T11:03:04;57923.84;;;-139.99;100.00
24154;BME280;12312;53.362;-1.518;2023-03-14T11:06:06;57923.84;;;-139.99;100.00
24154;BME280;12312;53.362;-1.518;2023-03-14T11:09:02;57923.84;;;-139.99;100.00
24154;BME280;12312;53.362;-1.518;2023-03-14T11:11:49;57923.84;;;-139.99;100.00
24154;BME280;12312;53.362;-1.518;2023-03-14T11:14:38;57923.84;;;-139.99;100.00
24154;BME280;12312;53.362;-1.518;2023-03-14T11:17:33;57923.84;;;-139.99;100.00
24154;BME280;12312;53.362;-1.518;2023-03-14T11:20:38;57923.84;;;-139.99;100.00
24154;BME280;12312;53.362;-1.518;2023-03-14T11:23:36;57923.84;;;-139.99;100.00
24154;BME280;12312;53.362;-1.518;2023-03-14T11:26:31;57923.84;;;-139.99;100.00
24154;BME280;12312;53.362;-1.518;2023-03-14T11:29:39;57923.84;;;-139.99;100.00
24154;BME280;12312;53.362;-1.518;2023-03-14T11:35:34;57923.84;;;-139.99;100.00
24154;BME280;12312;53.362;-1.518;2023-03-14T11:38:38;57923.84;;;-139.99;100.00
24154;BME280;12312;53.362;-1.518;2023-03-14T11:41:46;57923.84;;;-139.99;100.00
24154;BME280;12312;53.362;-1.518;2023-03-14T11:44:36;57923.84;;;-139.99;100.00
24154;BME280;12312;53.362;-1.518;2023-03-14T11:47:30;57923.84;;;-139.99;100.00
24154;BME280;12312;53.362;-1.518;2023-03-14T11:50:25;57923.84;;;-139.99;100.00
24154;BME280;12312;53.362;-1.518;2023-03-14T11:53:17;57923.84;;;-139.99;100.00
24154;BME280;12312;53.362;-1.518;2023-03-14T11:56:03;57923.84;;;-139.99;100.00
24154;BME280;12312;53.362;-1.518;2023-03-14T11:58:57;57923.84;;;-139.99;100.00
24154;BME280;12312;53.362;-1.518;2023-03-14T12:10:59;57923.84;;;-139.99;100.00
24154;BME280;12312;53.362;-1.518;2023-03-14T12:13:50;57923.84;;;-139.99;100.00
24154;BME280;12312;53.362;-1.518;2023-03-14T12:16:37;57923.84;;;-139.99;100.00
24154;BME280;12312;53.362;-1.518;2023-03-14T12:22:26;57923.84;;;-139.99;100.00
24154;BME280;12312;53.362;-1.518;2023-03-14T12:30:41;57923.84;;;-139.99;100.00
24154;BME280;12312;53.362;-1.518;2023-03-14T12:33:30;98145.09;;;8.71;92.95
24154;BME280;12312;53.362;-1.518;2023-03-14T12:36:47;98141.59;;;8.60;84.53
24154;BME280;12312;53.362;-1.518;2023-03-14T12:48:21;98172.75;;;6.19;87.34
24154;BME280;12312;53.362;-1.518;2023-03-14T12:51:16;98177.44;;;6.39;92.76
24154;BME280;12312;53.362;-1.518;2023-03-14T13:00:03;98180.00;;;6.28;91.37
24154;BME280;12312;53.362;-1.518;2023-03-14T13:06:01;98171.66;;;7.50;83.17
24154;BME280;12312;53.362;-1.518;2023-03-14T13:08:47;98162.41;;;8.22;84.37
24154;BME280;12312;53.362;-1.518;2023-03-14T13:11:33;98164.81;;;6.78;89.94
24154;BME280;12312;53.362;-1.518;2023-03-14T13:14:18;98176.91;;;6.10;94.15
24154;BME280;12312;53.362;-1.518;2023-03-14T13:17:02;98189.34;;;5.20;100.00
24154;BME280;12312;53.362;-1.518;2023-03-14T13:19:50;98216.66;;;5.07;100.00
24154;BME280;12312;53.362;-1.518;2023-03-14T13:22:36;98215.16;;;4.50;100.00
24154;BME280;12312;53.362;-1.518;2023-03-14T13:25:23;98203.00;;;4.61;100.00
24154;BME280;12312;53.362;-1.518;2023-03-14T13:28:09;98193.47;;;4.46;100.00
24154;BME280;12312;53.362;-1.518;2023-03-14T13:31:02;98189.91;;;4.33;100.00
24154;BME280;12312;53.362;-1.518;2023-03-14T13:33:46;98194.97;;;4.36;100.00
24154;BME280;12312;53.362;-1.518;2023-03-14T13:36:30;98178.59;;;4.45;100.00
24154;BME280;12312;53.362;-1.518;2023-03-14T13:39:27;98186.56;;;4.31;100.00
24154;BME280;12312;53.362;-1.518;2023-03-14T13:42:15;98186.94;;;4.25;100.00
24154;BME280;12312;53.362;-1.518;2023-03-14T13:45:00;98190.94;;;4.45;100.00
24154;BME280;12312;53.362;-1.518;2023-03-14T13:47:45;98181.78;;;4.50;100.00
24154;BME280;12312;53.362;-1.518;2023-03-14T13:50:31;98195.84;;;4.37;100.00
24154;BME280;12312;53.362;-1.518;2023-03-14T13:53:15;98186.28;;;4.22;100.00
24154;BME280;12312;53.362;-1.518;2023-03-14T13:56:03;98184.66;;;4.33;100.00
24154;BME280;12312;53.362;-1.518;2023-03-14T13:58:48;98199.63;;;4.33;100.00
24154;BME280;12312;53.362;-1.518;2023-03-14T14:01:34;98182.31;;;4.29;100.00
24154;BME280;12312;53.362;-1.518;2023-03-14T14:04:22;98187.72;;;4.13;100.00
24154;BME280;12312;53.362;-1.518;2023-03-14T14:07:10;98194.66;;;4.28;100.00
24154;BME280;12312;53.362;-1.518;2023-03-14T14:09:58;98203.66;;;4.24;100.00
24154;BME280;12312;53.362;-1.518;2023-03-14T14:12:48;98202.56;;;3.86;100.00
24154;BME280;12312;53.362;-1.518;2023-03-14T14:15:41;98185.69;;;3.90;100.00
24154;BME280;12312;53.362;-1.518;2023-03-14T14:18:27;98195.81;;;3.68;100.00
24154;BME280;12312;53.362;-1.518;2023-03-14T14:21:13;98213.13;;;3.72;100.00
24154;BME280;12312;53.362;-1.518;2023-03-14T14:24:05;98210.41;;;3.74;100.00
24154;BME280;12312;53.362;-1.518;2023-03-14T14:26:54;98209.34;;;3.76;100.00
24154;BME280;12312;53.362;-1.518;2023-03-14T14:29:43;98196.00;;;3.65;100.00
24154;BME280;12312;53.362;-1.518;2023-03-14T14:32:38;98204.66;;;3.67;100.00
24154;BME280;12312;53.362;-1.518;2023-03-14T14:35:30;98206.53;;;3.79;100.00
24154;BME280;12312;53.362;-1.518;2023-03-14T14:38:16;98212.94;;;3.75;100.00
24154;BME280;12312;53.362;-1.518;2023-03-14T14:41:02;98227.00;;;3.74;100.00
24154;BME280;12312;53.362;-1.518;2023-03-14T14:43:46;98231.91;;;3.66;100.00
24154;BME280;12312;53.362;-1.518;2023-03-14T14:46:32;98245.44;;;3.60;100.00
24154;BME280;12312;53.362;-1.518;2023-03-14T14:49:19;98262.22;;;3.14;100.00
24154;BME280;12312;53.362;-1.518;2023-03-14T14:52:20;98248.78;;;2.89;100.00
24154;BME280;12312;53.362;-1.518;2023-03-14T14:55:18;98249.75;;;2.88;100.00
24154;BME280;12312;53.362;-1.518;2023-03-14T14:58:25;98239.25;;;2.72;100.00
24154;BME280;12312;53.362;-1.518;2023-03-14T15:04:00;98241.44;;;2.80;100.00
24154;BME280;12312;53.362;-1.518;2023-03-14T15:06:46;98255.50;;;2.94;100.00
24154;BME280;12312;53.362;-1.518;2023-03-14T15:09:31;98261.22;;;3.01;100.00
24154;BME280;12312;53.362;-1.518;2023-03-14T15:12:15;98277.50;;;3.07;100.00
24154;BME280;12312;53.362;-1.518;2023-03-14T15:14:59;98282.31;;;2.70;100.00
24154;BME280;12312;53.362;-1.518;2023-03-14T15:17:43;98288.84;;;2.63;100.00
24154;BME280;12312;53.362;-1.518;2023-03-14T15:20:27;98301.44;;;2.41;100.00
24154;BME280;12312;53.362;-1.518;2023-03-14T15:23:14;98300.09;;;2.80;100.00
24154;BME280;12312;53.362;-1.518;2023-03-14T15:25:58;98299.41;;;2.77;100.00
24154;BME280;12312;53.362;-1.518;2023-03-14T15:28:42;98288.34;;;2.72;100.00
24154;BME280;12312;53.362;-1.518;2023-03-14T15:31:27;98294.31;;;2.74;100.00
24154;BME280;12312;53.362;-1.518;2023-03-14T15:34:11;98294.81;;;2.96;100.00
24154;BME280;12312;53.362;-1.518;2023-03-14T15:36:55;98290.03;;;3.02;100.00
24154;BME280;12312;53.362;-1.518;2023-03-14T15:39:39;98292.72;;;3.16;100.00
24154;BME280;12312;53.362;-1.518;2023-03-14T15:42:24;98286.75;;;3.28;100.00
24154;BME280;12312;53.362;-1.518;2023-03-14T15:45:08;98289.63;;;3.39;100.00
24154;BME280;12312;53.362;-1.518;2023-03-14T15:47:53;98277.47;;;3.23;100.00
24154;BME280;12312;53.362;-1.518;2023-03-14T15:50:37;98287.75;;;3.12;100.00
24154;BME280;12312;53.362;-1.518;2023-03-14T15:53:21;98293.09;;;2.95;100.00
24154;BME280;12312;53.362;-1.518;2023-03-14T15:56:07;98286.53;;;2.88;100.00
24154;BME280;12312;53.362;-1.518;2023-03-14T15:58:54;98284.84;;;2.87;100.00
24154;BME280;12312;53.362;-1.518;2023-03-14T16:01:39;98284.50;;;2.77;100.00
24154;BME280;12312;53.362;-1.518;2023-03-14T16:04:23;98287.69;;;2.98;100.00
24154;BME280;12312;53.362;-1.518;2023-03-14T16:07:07;98272.84;;;2.97;100.00
24154;BME280;12312;53.362;-1.518;2023-03-14T16:09:51;98280.16;;;2.92;100.00
24154;BME280;12312;53.362;-1.518;2023-03-14T16:12:35;98284.13;;;2.99;100.00
24154;BME280;12312;53.362;-1.518;2023-03-14T16:15:19;98286.75;;;2.99;100.00